createdAt,value
2022-12-22T00:00:11.595Z,101674.28
2022-12-22T00:05:34.964Z,101674.91
2022-12-22T00:10:50.693Z,101666.97
2022-12-22T00:16:08.960Z,101673.94
2022-12-22T00:21:24.149Z,101682.94
2022-12-22T00:26:39.723Z,101679.09
2022-12-22T00:31:54.922Z,101668.81
2022-12-22T00:37:09.780Z,101666.16
2022-12-22T00:42:25.080Z,101654.09
2022-12-22T00:47:43.576Z,101653.09
2022-12-22T00:52:58.781Z,101642.28
2022-12-22T00:58:14.426Z,101644.69
2022-12-22T01:03:30.237Z,101631.56
2022-12-22T01:08:45.119Z,101627.44
2022-12-22T01:14:00.752Z,101617.94
2022-12-22T01:19:15.730Z,101618.38
2022-12-22T01:24:31.040Z,101615.03
2022-12-22T01:29:46.691Z,101609.84
2022-12-22T01:35:01.384Z,101590.81
2022-12-22T01:40:16.096Z,101607.09
2022-12-22T01:45:37.947Z,101602.41
2022-12-22T01:50:54.147Z,101604.03
2022-12-22T01:56:09.248Z,101600.09
2022-12-22T02:01:25.007Z,101589.06
2022-12-22T02:06:43.571Z,101581.44
2022-12-22T02:12:03.618Z,101574.81
2022-12-22T02:17:25.729Z,101573.22
2022-12-22T02:22:44.076Z,101573.22
2022-12-22T02:28:03.564Z,101568.84
2022-12-22T02:33:18.396Z,101579.09
2022-12-22T02:38:38.181Z,101585.31
2022-12-22T02:44:00.615Z,101579.13
2022-12-22T02:49:18.956Z,101569.56
2022-12-22T02:54:36.650Z,101572.03
2022-12-22T02:59:52.350Z,101583.84
2022-12-22T03:05:07.030Z,101583.16
2022-12-22T03:10:21.898Z,101573.22
2022-12-22T03:15:40.482Z,101572.91
2022-12-22T03:20:55.283Z,101570.28
2022-12-22T03:25:53.014Z,101572.50
2022-12-22T03:30:54.250Z,101572.53
2022-12-22T03:35:50.954Z,101564.75
2022-12-22T03:40:47.705Z,101568.75
2022-12-22T03:46:02.517Z,101569.56
2022-12-22T03:51:02.128Z,101551.41
2022-12-22T03:56:02.613Z,101554.06
2022-12-22T04:01:04.897Z,101577.06
2022-12-22T04:06:04.138Z,101570.72
2022-12-22T04:11:18.843Z,101578.81
2022-12-22T04:16:15.432Z,101577.28
2022-12-22T04:21:14.207Z,101579.44
2022-12-22T04:26:10.821Z,101584.69
2022-12-22T04:31:07.658Z,101589.19
2022-12-22T04:36:10.502Z,101583.97
2022-12-22T04:41:09.944Z,101582.47
2022-12-22T04:46:06.964Z,101578.63
2022-12-22T04:51:03.887Z,101574.06
2022-12-22T04:56:01.656Z,101580.81
2022-12-22T05:01:08.080Z,101583.06
2022-12-22T05:06:04.946Z,101576.56
2022-12-22T05:11:02.590Z,101581.97
2022-12-22T05:16:05.320Z,101569.72
2022-12-22T05:21:02.752Z,101569.56
2022-12-22T05:26:02.386Z,101572.09
2022-12-22T05:31:03.253Z,101573.91
2022-12-22T05:36:01.834Z,101569.03
2022-12-22T05:41:04.069Z,101576.94
2022-12-22T05:46:02.046Z,101580.97
2022-12-22T05:51:02.064Z,101578.38
2022-12-22T05:55:58.674Z,101579.81
2022-12-22T06:00:56.884Z,101587.69
2022-12-22T06:05:53.795Z,101581.88
2022-12-22T06:10:54.187Z,101571.16
2022-12-22T06:15:51.086Z,101581.25
2022-12-22T06:20:47.863Z,101575.94
2022-12-22T06:25:54.117Z,101574.66
2022-12-22T06:30:50.789Z,101575.84
2022-12-22T06:35:57.989Z,101574.63
2022-12-22T06:40:56.420Z,101559.34
2022-12-22T06:45:53.695Z,101582.22
2022-12-22T06:50:50.813Z,101576.03
2022-12-22T06:55:47.610Z,101580.78
2022-12-22T07:00:47.992Z,101577.00
2022-12-22T07:06:02.076Z,101559.09
2022-12-22T07:10:59.058Z,101583.41
2022-12-22T07:16:00.763Z,101579.50
2022-12-22T07:20:58.359Z,101582.25
2022-12-22T07:25:55.297Z,101577.34
2022-12-22T07:30:54.522Z,101583.56
2022-12-22T07:36:01.228Z,101574.81
2022-12-22T07:41:26.980Z,101580.88
2022-12-22T07:46:32.064Z,101588.25
2022-12-22T07:51:51.573Z,101590.56
2022-12-22T07:57:24.839Z,101576.06
2022-12-22T08:09:16.372Z,101585.88
2022-12-22T08:19:56.292Z,101591.19
2022-12-22T08:25:15.884Z,101585.25
2022-12-22T08:42:52.300Z,101573.31
2022-12-22T08:49:08.448Z,101567.72
2022-12-22T08:54:44.499Z,101570.59
2022-12-22T09:11:20.463Z,101555.00
2022-12-22T09:14:19.014Z,101560.78
2022-12-22T09:24:16.791Z,101540.00
2022-12-22T09:29:15.359Z,101540.69
2022-12-22T09:34:17.668Z,101545.78
2022-12-22T09:39:15.968Z,101536.91
2022-12-22T09:44:15.533Z,101542.91
2022-12-22T09:49:14.299Z,101535.13
2022-12-22T09:54:13.720Z,101518.75
2022-12-22T09:59:14.047Z,101519.56
2022-12-22T10:04:16.337Z,101515.47
2022-12-22T10:09:46.213Z,101504.03
2022-12-22T10:14:38.825Z,101496.81
2022-12-22T10:19:38.499Z,101480.38
2022-12-22T10:24:36.837Z,101474.50
2022-12-22T10:29:34.104Z,101456.69
2022-12-22T10:34:33.325Z,101458.75
2022-12-22T10:39:32.219Z,101454.78
2022-12-22T10:44:30.957Z,101444.09
2022-12-22T10:49:29.747Z,101431.88
2022-12-22T10:54:31.302Z,101417.13
2022-12-22T10:59:28.248Z,101417.38
2022-12-22T11:04:26.452Z,101416.09
2022-12-22T11:09:33.884Z,101411.16
2022-12-22T11:14:34.730Z,101402.19
2022-12-22T11:19:47.707Z,101401.19
2022-12-22T11:25:02.407Z,101406.75
2022-12-22T11:30:11.871Z,101405.16
2022-12-22T11:35:13.393Z,101401.19
2022-12-22T11:40:18.908Z,101396.47
2022-12-22T11:45:29.273Z,101387.06
2022-12-22T11:51:02.251Z,101378.53
2022-12-22T11:56:01.790Z,101370.13
2022-12-22T12:01:15.373Z,101342.84
2022-12-22T12:06:23.061Z,101337.63
2022-12-22T12:11:25.564Z,101358.97
2022-12-22T12:16:31.314Z,101356.78
2022-12-22T12:21:28.707Z,101346.34
2022-12-22T12:26:28.408Z,101338.81
2022-12-22T12:31:43.903Z,101346.09
2022-12-22T12:36:43.693Z,101346.53
2022-12-22T12:41:54.460Z,101346.56
2022-12-22T12:47:57.203Z,101342.31
2022-12-22T12:53:15.277Z,101350.03
2022-12-22T12:58:35.157Z,101337.28
2022-12-22T13:14:54.460Z,101333.09
2022-12-22T13:19:55.007Z,101316.69
2022-12-22T13:24:53.522Z,101323.69
2022-12-22T13:29:52.037Z,101326.25
2022-12-22T13:40:12.436Z,101318.50
2022-12-22T13:45:25.471Z,101308.22
2022-12-22T13:50:28.363Z,101309.03
2022-12-22T13:55:26.588Z,101302.19
2022-12-22T14:00:33.487Z,101304.81
2022-12-22T14:05:31.494Z,101302.19
2022-12-22T14:10:33.805Z,101295.25
2022-12-22T14:15:30.884Z,101298.78
2022-12-22T14:20:32.661Z,101291.00
2022-12-22T14:25:32.196Z,101285.84
2022-12-22T14:30:37.944Z,101284.97
2022-12-22T14:36:23.654Z,101276.31
2022-12-22T14:42:03.006Z,101274.44
2022-12-22T14:47:14.504Z,101275.28
2022-12-22T14:52:17.524Z,101268.16
2022-12-22T14:57:20.344Z,101256.22
2022-12-22T15:02:22.785Z,101229.34
2022-12-22T15:08:03.573Z,101247.63
2022-12-22T15:12:39.394Z,101247.66
2022-12-22T15:17:39.444Z,101240.75
2022-12-22T15:22:37.993Z,101237.28
2022-12-22T15:27:34.892Z,101236.34
2022-12-22T15:32:37.869Z,101238.09
2022-12-22T15:37:42.648Z,101240.66
2022-12-22T15:42:41.444Z,101245.72
2022-12-22T15:47:39.899Z,101241.28
2022-12-22T15:52:37.361Z,101218.00
2022-12-22T15:57:34.164Z,101240.38
2022-12-22T16:02:32.352Z,101240.22
2022-12-22T16:07:57.179Z,101247.03
2022-12-22T16:12:59.555Z,101248.03
2022-12-22T16:17:56.580Z,101251.66
2022-12-22T16:22:56.206Z,101234.16
2022-12-22T16:27:53.009Z,101256.97
2022-12-22T16:32:50.942Z,101256.41
2022-12-22T16:37:48.621Z,101248.03
2022-12-22T16:48:06.508Z,101248.00
2022-12-22T16:53:04.628Z,101247.31
2022-12-22T16:58:01.176Z,101238.66
2022-12-22T17:02:59.897Z,101235.16
2022-12-22T17:07:58.247Z,101235.28
2022-12-22T17:12:56.361Z,101217.38
2022-12-22T17:17:53.575Z,101236.84
2022-12-22T17:22:52.182Z,101247.97
2022-12-22T17:27:49.596Z,101242.97
2022-12-22T17:32:46.646Z,101234.91
2022-12-22T17:37:47.096Z,101232.31
2022-12-22T17:42:43.971Z,101233.13
2022-12-22T17:47:49.604Z,101236.41
2022-12-22T17:52:47.112Z,101243.31
2022-12-22T17:57:43.799Z,101236.63
2022-12-22T18:02:44.170Z,101238.50
2022-12-22T18:07:43.850Z,101247.94
2022-12-22T18:12:41.262Z,101233.13
2022-12-22T18:17:37.903Z,101229.97
2022-12-22T18:22:35.389Z,101235.88
2022-12-22T18:27:32.078Z,101233.41
2022-12-22T18:32:28.805Z,101235.25
2022-12-22T18:37:26.658Z,101224.06
2022-12-22T18:42:23.979Z,101221.47
2022-12-22T18:47:20.730Z,101200.75
2022-12-22T18:52:19.381Z,101219.78
2022-12-22T18:57:17.132Z,101227.47
2022-12-22T19:02:19.571Z,101221.44
2022-12-22T19:07:20.606Z,101220.59
2022-12-22T19:12:25.710Z,101227.44
2022-12-22T19:17:24.567Z,101212.88
2022-12-22T19:22:26.474Z,101230.19
2022-12-22T19:27:23.878Z,101219.03
2022-12-22T19:32:25.606Z,101198.19
2022-12-22T19:37:30.279Z,101230.91
2022-12-22T19:42:40.536Z,101210.66
2022-12-22T19:47:52.177Z,101227.31
2022-12-22T19:52:53.432Z,101223.22
2022-12-22T19:57:53.869Z,101215.50
2022-12-22T20:02:52.448Z,101203.28
2022-12-22T20:07:49.432Z,101227.69
2022-12-22T20:12:53.842Z,101225.13
2022-12-22T20:17:54.514Z,101225.94
2022-12-22T20:22:52.987Z,101224.69
2022-12-22T20:27:50.982Z,101217.72
2022-12-22T20:32:47.728Z,101206.63
2022-12-22T20:37:44.961Z,101216.91
2022-12-22T20:42:41.480Z,101205.88
2022-12-22T20:47:38.775Z,101209.16
2022-12-22T20:52:35.483Z,101216.19
2022-12-22T20:57:32.583Z,101219.50
2022-12-22T21:02:31.356Z,101211.59
2022-12-22T21:07:28.811Z,101216.75
2022-12-22T21:12:27.819Z,101215.47
2022-12-22T21:17:24.401Z,101225.97
2022-12-22T21:22:20.955Z,101208.59
2022-12-22T21:27:21.945Z,101226.19
2022-12-22T21:32:18.598Z,101222.00
2022-12-22T21:37:17.641Z,101217.84
2022-12-22T21:42:14.692Z,101206.72
2022-12-22T21:47:13.353Z,101199.03
2022-12-22T21:52:09.983Z,101208.63
2022-12-22T21:57:06.485Z,101207.59
2022-12-22T22:02:03.378Z,101197.38
2022-12-22T22:07:00.752Z,101186.13
2022-12-22T22:12:21.976Z,101188.53
2022-12-22T22:17:21.422Z,101188.41
2022-12-22T22:22:20.876Z,101192.75
2022-12-22T22:27:17.380Z,101188.59
2022-12-22T22:32:13.974Z,101185.16
2022-12-22T22:37:14.121Z,101188.53
2022-12-22T22:42:13.939Z,101178.19
2022-12-22T22:47:12.350Z,101170.34
2022-12-22T22:52:12.376Z,101175.44
2022-12-22T22:57:09.181Z,101172.09
2022-12-22T23:02:06.542Z,101167.84
2022-12-22T23:07:04.082Z,101160.97
2022-12-22T23:12:00.716Z,101147.22
2022-12-22T23:16:57.369Z,101144.72
2022-12-22T23:21:55.788Z,101139.56
2022-12-22T23:26:52.627Z,101146.41
2022-12-22T23:31:51.411Z,101130.13
2022-12-22T23:36:48.200Z,101127.56
2022-12-22T23:41:47.718Z,101128.47
2022-12-22T23:46:44.390Z,101123.31
2022-12-22T23:51:40.957Z,101130.25
2022-12-22T23:56:37.630Z,101120.69
